sensor_id;sensor_type;location;lat;lon;timestamp;P1;durP1;ratioP1;P2;durP2;ratioP2
13267;SDS011;6702;47.068;15.458;2023-05-07T00:01:11;9.37;;;8.57;;
13267;SDS011;6702;47.068;15.458;2023-05-07T00:04:14;8.30;;;7.60;;
13267;SDS011;6702;47.068;15.458;2023-05-07T00:07:17;7.90;;;7.20;;
13267;SDS011;6702;47.068;15.458;2023-05-07T00:10:21;8.70;;;7.80;;
13267;SDS011;6702;47.068;15.458;2023-05-07T00:13:25;8.70;;;8.00;;
13267;SDS011;6702;47.068;15.458;2023-05-07T00:16:28;7.40;;;6.70;;
13267;SDS011;6702;47.068;15.458;2023-05-07T00:19:32;7.33;;;6.40;;
13267;SDS011;6702;47.068;15.458;2023-05-07T00:22:35;7.97;;;7.30;;
13267;SDS011;6702;47.068;15.458;2023-05-07T00:25:38;9.07;;;8.17;;
13267;SDS011;6702;47.068;15.458;2023-05-07T00:28:43;8.40;;;7.60;;
13267;SDS011;6702;47.068;15.458;2023-05-07T00:31:46;8.33;;;7.67;;
13267;SDS011;6702;47.068;15.458;2023-05-07T00:34:51;9.10;;;8.20;;
13267;SDS011;6702;47.068;15.458;2023-05-07T00:37:54;9.07;;;8.27;;
13267;SDS011;6702;47.068;15.458;2023-05-07T00:40:57;8.60;;;7.83;;
13267;SDS011;6702;47.068;15.458;2023-05-07T00:44:02;8.10;;;7.30;;
13267;SDS011;6702;47.068;15.458;2023-05-07T00:47:05;8.10;;;7.30;;
13267;SDS011;6702;47.068;15.458;2023-05-07T00:50:09;8.57;;;7.73;;
13267;SDS011;6702;47.068;15.458;2023-05-07T00:53:14;8.40;;;7.73;;
13267;SDS011;6702;47.068;15.458;2023-05-07T00:56:17;8.07;;;7.37;;
13267;SDS011;6702;47.068;15.458;2023-05-07T00:59:23;8.60;;;7.90;;
13267;SDS011;6702;47.068;15.458;2023-05-07T01:02:26;9.03;;;8.10;;
13267;SDS011;6702;47.068;15.458;2023-05-07T01:05:29;10.33;;;9.20;;
13267;SDS011;6702;47.068;15.458;2023-05-07T01:08:33;8.90;;;8.10;;
13267;SDS011;6702;47.068;15.458;2023-05-07T01:11:37;9.27;;;8.47;;
13267;SDS011;6702;47.068;15.458;2023-05-07T01:14:42;8.57;;;7.70;;
13267;SDS011;6702;47.068;15.458;2023-05-07T01:17:46;8.80;;;8.03;;
13267;SDS011;6702;47.068;15.458;2023-05-07T01:20:49;8.97;;;7.70;;
13267;SDS011;6702;47.068;15.458;2023-05-07T01:23:54;7.20;;;6.50;;
13267;SDS011;6702;47.068;15.458;2023-05-07T01:26:57;7.17;;;6.67;;
13267;SDS011;6702;47.068;15.458;2023-05-07T01:30:02;6.53;;;5.93;;
13267;SDS011;6702;47.068;15.458;2023-05-07T01:33:08;6.40;;;5.90;;
13267;SDS011;6702;47.068;15.458;2023-05-07T01:36:13;7.07;;;5.90;;
13267;SDS011;6702;47.068;15.458;2023-05-07T01:39:19;5.60;;;5.00;;
13267;SDS011;6702;47.068;15.458;2023-05-07T01:42:22;5.50;;;5.10;;
13267;SDS011;6702;47.068;15.458;2023-05-07T01:45:25;6.57;;;6.00;;
13267;SDS011;6702;47.068;15.458;2023-05-07T01:48:29;6.53;;;5.87;;
13267;SDS011;6702;47.068;15.458;2023-05-07T01:51:33;6.83;;;6.23;;
13267;SDS011;6702;47.068;15.458;2023-05-07T01:54:37;6.20;;;5.70;;
13267;SDS011;6702;47.068;15.458;2023-05-07T01:57:41;6.97;;;6.27;;
13267;SDS011;6702;47.068;15.458;2023-05-07T02:00:44;7.67;;;6.97;;
13267;SDS011;6702;47.068;15.458;2023-05-07T02:03:47;7.60;;;6.80;;
13267;SDS011;6702;47.068;15.458;2023-05-07T02:06:51;7.00;;;6.33;;
13267;SDS011;6702;47.068;15.458;2023-05-07T02:09:55;6.60;;;6.00;;
13267;SDS011;6702;47.068;15.458;2023-05-07T02:12:58;7.50;;;6.90;;
13267;SDS011;6702;47.068;15.458;2023-05-07T02:16:03;6.80;;;6.20;;
13267;SDS011;6702;47.068;15.458;2023-05-07T02:19:08;6.13;;;5.63;;
13267;SDS011;6702;47.068;15.458;2023-05-07T02:22:11;6.67;;;6.10;;
13267;SDS011;6702;47.068;15.458;2023-05-07T02:25:16;7.50;;;6.20;;
13267;SDS011;6702;47.068;15.458;2023-05-07T02:28:19;7.03;;;6.33;;
13267;SDS011;6702;47.068;15.458;2023-05-07T02:31:22;8.60;;;7.07;;
13267;SDS011;6702;47.068;15.458;2023-05-07T02:34:25;8.10;;;7.30;;
13267;SDS011;6702;47.068;15.458;2023-05-07T02:37:28;8.10;;;6.20;;
13267;SDS011;6702;47.068;15.458;2023-05-07T02:40:33;8.03;;;6.50;;
13267;SDS011;6702;47.068;15.458;2023-05-07T02:43:39;6.00;;;5.50;;
13267;SDS011;6702;47.068;15.458;2023-05-07T02:46:43;7.50;;;5.93;;
13267;SDS011;6702;47.068;15.458;2023-05-07T02:49:46;7.10;;;6.40;;
13267;SDS011;6702;47.068;15.458;2023-05-07T02:52:49;6.30;;;5.70;;
13267;SDS011;6702;47.068;15.458;2023-05-07T02:55:58;6.80;;;6.20;;
13267;SDS011;6702;47.068;15.458;2023-05-07T02:59:02;6.47;;;5.87;;
13267;SDS011;6702;47.068;15.458;2023-05-07T03:02:06;7.93;;;6.70;;
13267;SDS011;6702;47.068;15.458;2023-05-07T03:05:09;8.07;;;6.03;;
13267;SDS011;6702;47.068;15.458;2023-05-07T03:08:13;8.30;;;6.47;;
13267;SDS011;6702;47.068;15.458;2023-05-07T03:11:18;7.00;;;6.13;;
13267;SDS011;6702;47.068;15.458;2023-05-07T03:14:21;6.17;;;5.67;;
13267;SDS011;6702;47.068;15.458;2023-05-07T03:17:24;6.90;;;6.30;;
13267;SDS011;6702;47.068;15.458;2023-05-07T03:20:27;6.70;;;6.00;;
13267;SDS011;6702;47.068;15.458;2023-05-07T03:23:31;6.30;;;5.70;;
13267;SDS011;6702;47.068;15.458;2023-05-07T03:26:35;6.37;;;5.73;;
13267;SDS011;6702;47.068;15.458;2023-05-07T03:29:38;6.57;;;5.90;;
13267;SDS011;6702;47.068;15.458;2023-05-07T03:32:42;6.20;;;5.63;;
13267;SDS011;6702;47.068;15.458;2023-05-07T03:35:45;7.10;;;6.40;;
13267;SDS011;6702;47.068;15.458;2023-05-07T03:38:48;8.23;;;6.20;;
13267;SDS011;6702;47.068;15.458;2023-05-07T03:41:53;7.00;;;6.40;;
13267;SDS011;6702;47.068;15.458;2023-05-07T03:44:57;6.20;;;5.70;;
13267;SDS011;6702;47.068;15.458;2023-05-07T03:48:00;6.13;;;5.63;;
13267;SDS011;6702;47.068;15.458;2023-05-07T03:51:03;7.13;;;6.53;;
13267;SDS011;6702;47.068;15.458;2023-05-07T03:54:06;9.50;;;6.13;;
13267;SDS011;6702;47.068;15.458;2023-05-07T03:57:11;6.70;;;6.10;;
13267;SDS011;6702;47.068;15.458;2023-05-07T04:00:14;6.53;;;5.93;;
13267;SDS011;6702;47.068;15.458;2023-05-07T04:03:17;6.60;;;6.10;;
13267;SDS011;6702;47.068;15.458;2023-05-07T04:06:21;7.03;;;6.40;;
13267;SDS011;6702;47.068;15.458;2023-05-07T04:09:24;5.80;;;5.30;;
13267;SDS011;6702;47.068;15.458;2023-05-07T04:12:29;6.27;;;5.77;;
13267;SDS011;6702;47.068;15.458;2023-05-07T04:15:32;7.53;;;6.00;;
13267;SDS011;6702;47.068;15.458;2023-05-07T04:18:35;6.60;;;6.00;;
13267;SDS011;6702;47.068;15.458;2023-05-07T04:21:38;6.60;;;6.10;;
13267;SDS011;6702;47.068;15.458;2023-05-07T04:24:41;5.97;;;5.47;;
13267;SDS011;6702;47.068;15.458;2023-05-07T04:27:46;6.03;;;5.53;;
13267;SDS011;6702;47.068;15.458;2023-05-07T04:30:50;6.93;;;6.20;;
13267;SDS011;6702;47.068;15.458;2023-05-07T04:33:53;6.87;;;6.37;;
13267;SDS011;6702;47.068;15.458;2023-05-07T04:36:58;7.20;;;6.60;;
13267;SDS011;6702;47.068;15.458;2023-05-07T04:40:01;5.87;;;5.47;;
13267;SDS011;6702;47.068;15.458;2023-05-07T04:43:06;5.13;;;4.67;;
13267;SDS011;6702;47.068;15.458;2023-05-07T04:46:10;6.53;;;5.20;;
13267;SDS011;6702;47.068;15.458;2023-05-07T04:49:13;6.00;;;5.50;;
13267;SDS011;6702;47.068;15.458;2023-05-07T04:52:19;5.63;;;5.17;;
13267;SDS011;6702;47.068;15.458;2023-05-07T04:55:22;5.63;;;5.23;;
13267;SDS011;6702;47.068;15.458;2023-05-07T04:58:27;5.17;;;4.77;;
13267;SDS011;6702;47.068;15.458;2023-05-07T05:01:33;5.30;;;4.80;;
13267;SDS011;6702;47.068;15.458;2023-05-07T05:04:36;5.73;;;5.20;;
13267;SDS011;6702;47.068;15.458;2023-05-07T05:07:39;4.93;;;4.53;;
13267;SDS011;6702;47.068;15.458;2023-05-07T05:10:42;5.37;;;4.87;;
13267;SDS011;6702;47.068;15.458;2023-05-07T05:13:47;5.50;;;4.73;;
13267;SDS011;6702;47.068;15.458;2023-05-07T05:16:50;5.57;;;5.03;;
13267;SDS011;6702;47.068;15.458;2023-05-07T05:19:54;4.97;;;4.37;;
13267;SDS011;6702;47.068;15.458;2023-05-07T05:22:57;6.60;;;4.73;;
13267;SDS011;6702;47.068;15.458;2023-05-07T05:26:00;5.83;;;4.50;;
13267;SDS011;6702;47.068;15.458;2023-05-07T05:29:05;5.23;;;4.83;;
13267;SDS011;6702;47.068;15.458;2023-05-07T05:32:09;4.83;;;4.40;;
13267;SDS011;6702;47.068;15.458;2023-05-07T05:35:12;4.73;;;4.33;;
13267;SDS011;6702;47.068;15.458;2023-05-07T05:38:15;4.57;;;4.17;;
13267;SDS011;6702;47.068;15.458;2023-05-07T05:41:18;4.97;;;4.57;;
13267;SDS011;6702;47.068;15.458;2023-05-07T05:44:23;4.30;;;4.00;;
13267;SDS011;6702;47.068;15.458;2023-05-07T05:47:26;4.33;;;4.03;;
13267;SDS011;6702;47.068;15.458;2023-05-07T05:50:29;5.33;;;4.83;;
13267;SDS011;6702;47.068;15.458;2023-05-07T05:53:33;4.60;;;4.20;;
13267;SDS011;6702;47.068;15.458;2023-05-07T05:56:36;6.20;;;3.93;;
13267;SDS011;6702;47.068;15.458;2023-05-07T05:59:41;6.50;;;3.90;;
13267;SDS011;6702;47.068;15.458;2023-05-07T06:02:44;4.77;;;3.90;;
13267;SDS011;6702;47.068;15.458;2023-05-07T06:05:48;4.20;;;3.90;;
13267;SDS011;6702;47.068;15.458;2023-05-07T06:08:51;4.40;;;4.00;;
13267;SDS011;6702;47.068;15.458;2023-05-07T06:11:54;4.17;;;3.77;;
13267;SDS011;6702;47.068;15.458;2023-05-07T06:15:02;3.80;;;3.47;;
13267;SDS011;6702;47.068;15.458;2023-05-07T06:18:06;3.97;;;3.67;;
13267;SDS011;6702;47.068;15.458;2023-05-07T06:21:09;3.53;;;3.27;;
13267;SDS011;6702;47.068;15.458;2023-05-07T06:24:12;4.77;;;3.60;;
13267;SDS011;6702;47.068;15.458;2023-05-07T06:27:15;3.50;;;3.20;;
13267;SDS011;6702;47.068;15.458;2023-05-07T06:30:20;3.93;;;3.63;;
13267;SDS011;6702;47.068;15.458;2023-05-07T06:33:23;3.53;;;3.23;;
13267;SDS011;6702;47.068;15.458;2023-05-07T06:36:26;3.47;;;3.17;;
13267;SDS011;6702;47.068;15.458;2023-05-07T06:39:32;4.53;;;3.47;;
13267;SDS011;6702;47.068;15.458;2023-05-07T06:42:36;4.10;;;3.30;;
13267;SDS011;6702;47.068;15.458;2023-05-07T06:45:41;3.30;;;2.70;;
13267;SDS011;6702;47.068;15.458;2023-05-07T06:48:44;3.10;;;2.80;;
13267;SDS011;6702;47.068;15.458;2023-05-07T06:51:47;3.53;;;3.23;;
13267;SDS011;6702;47.068;15.458;2023-05-07T06:54:50;3.33;;;3.13;;
13267;SDS011;6702;47.068;15.458;2023-05-07T06:57:53;3.87;;;3.47;;
13267;SDS011;6702;47.068;15.458;2023-05-07T07:00:58;3.70;;;3.40;;
13267;SDS011;6702;47.068;15.458;2023-05-07T07:04:01;3.72;;;3.42;;
13267;SDS011;6702;47.068;15.458;2023-05-07T07:07:04;4.47;;;3.35;;
13267;SDS011;6702;47.068;15.458;2023-05-07T07:10:08;4.25;;;3.95;;
13267;SDS011;6702;47.068;15.458;2023-05-07T07:13:12;3.97;;;3.67;;
13267;SDS011;6702;47.068;15.458;2023-05-07T07:16:16;3.67;;;3.42;;
13267;SDS011;6702;47.068;15.458;2023-05-07T07:19:20;3.42;;;3.22;;
13267;SDS011;6702;47.068;15.458;2023-05-07T07:22:23;3.95;;;3.65;;
13267;SDS011;6702;47.068;15.458;2023-05-07T07:25:26;3.85;;;3.55;;
13267;SDS011;6702;47.068;15.458;2023-05-07T07:28:29;3.78;;;3.58;;
13267;SDS011;6702;47.068;15.458;2023-05-07T07:31:33;5.10;;;3.85;;
13267;SDS011;6702;47.068;15.458;2023-05-07T07:34:37;3.72;;;3.50;;
13267;SDS011;6702;47.068;15.458;2023-05-07T07:37:40;5.07;;;3.90;;
13267;SDS011;6702;47.068;15.458;2023-05-07T07:40:44;3.83;;;3.63;;
13267;SDS011;6702;47.068;15.458;2023-05-07T07:43:47;4.32;;;4.03;;
13267;SDS011;6702;47.068;15.458;2023-05-07T07:46:52;4.28;;;4.07;;
13267;SDS011;6702;47.068;15.458;2023-05-07T07:49:55;4.53;;;4.13;;
13267;SDS011;6702;47.068;15.458;2023-05-07T07:52:58;5.18;;;4.68;;
13267;SDS011;6702;47.068;15.458;2023-05-07T07:56:01;4.07;;;3.78;;
13267;SDS011;6702;47.068;15.458;2023-05-07T07:59:06;4.70;;;4.40;;
13267;SDS011;6702;47.068;15.458;2023-05-07T08:02:10;4.95;;;4.65;;
13267;SDS011;6702;47.068;15.458;2023-05-07T08:05:13;4.88;;;4.03;;
13267;SDS011;6702;47.068;15.458;2023-05-07T08:08:17;4.80;;;4.50;;
13267;SDS011;6702;47.068;15.458;2023-05-07T08:11:20;6.70;;;4.70;;
13267;SDS011;6702;47.068;15.458;2023-05-07T08:14:24;4.45;;;4.15;;
13267;SDS011;6702;47.068;15.458;2023-05-07T08:17:28;4.80;;;4.50;;
13267;SDS011;6702;47.068;15.458;2023-05-07T08:20:32;4.65;;;4.35;;
13267;SDS011;6702;47.068;15.458;2023-05-07T08:23:37;4.78;;;4.45;;
13267;SDS011;6702;47.068;15.458;2023-05-07T08:26:40;5.07;;;4.60;;
13267;SDS011;6702;47.068;15.458;2023-05-07T08:29:43;4.93;;;4.60;;
13267;SDS011;6702;47.068;15.458;2023-05-07T08:32:50;5.43;;;4.40;;
13267;SDS011;6702;47.068;15.458;2023-05-07T08:35:53;4.40;;;3.83;;
13267;SDS011;6702;47.068;15.458;2023-05-07T08:38:56;5.65;;;5.05;;
13267;SDS011;6702;47.068;15.458;2023-05-07T08:42:00;4.78;;;4.40;;
13267;SDS011;6702;47.068;15.458;2023-05-07T08:45:05;4.90;;;4.50;;
13267;SDS011;6702;47.068;15.458;2023-05-07T08:48:15;4.65;;;3.90;;
13267;SDS011;6702;47.068;15.458;2023-05-07T08:51:20;5.00;;;4.60;;
13267;SDS011;6702;47.068;15.458;2023-05-07T08:54:23;4.43;;;4.13;;
13267;SDS011;6702;47.068;15.458;2023-05-07T08:57:28;5.07;;;4.67;;
13267;SDS011;6702;47.068;15.458;2023-05-07T09:00:31;4.83;;;4.47;;
13267;SDS011;6702;47.068;15.458;2023-05-07T09:03:36;5.10;;;4.80;;
13267;SDS011;6702;47.068;15.458;2023-05-07T09:06:40;4.77;;;4.37;;
13267;SDS011;6702;47.068;15.458;2023-05-07T09:09:44;5.50;;;4.87;;
13267;SDS011;6702;47.068;15.458;2023-05-07T09:12:47;4.53;;;4.23;;
13267;SDS011;6702;47.068;15.458;2023-05-07T09:15:50;4.60;;;4.30;;
13267;SDS011;6702;47.068;15.458;2023-05-07T09:18:56;5.20;;;4.73;;
13267;SDS011;6702;47.068;15.458;2023-05-07T09:22:01;5.33;;;4.83;;
13267;SDS011;6702;47.068;15.458;2023-05-07T09:25:06;4.60;;;4.30;;
13267;SDS011;6702;47.068;15.458;2023-05-07T09:28:11;5.17;;;4.73;;
13267;SDS011;6702;47.068;15.458;2023-05-07T09:31:14;4.60;;;4.30;;
13267;SDS011;6702;47.068;15.458;2023-05-07T09:34:22;6.33;;;5.60;;
13267;SDS011;6702;47.068;15.458;2023-05-07T09:37:26;5.17;;;4.77;;
13267;SDS011;6702;47.068;15.458;2023-05-07T09:40:30;4.97;;;4.47;;
13267;SDS011;6702;47.068;15.458;2023-05-07T09:43:34;5.00;;;4.60;;
13267;SDS011;6702;47.068;15.458;2023-05-07T09:46:38;4.77;;;4.37;;
13267;SDS011;6702;47.068;15.458;2023-05-07T09:49:43;4.53;;;4.13;;
13267;SDS011;6702;47.068;15.458;2023-05-07T09:52:52;6.37;;;4.70;;
13267;SDS011;6702;47.068;15.458;2023-05-07T09:55:57;5.10;;;4.70;;
13267;SDS011;6702;47.068;15.458;2023-05-07T09:59:03;5.50;;;3.93;;
13267;SDS011;6702;47.068;15.458;2023-05-07T10:02:09;4.33;;;3.93;;
13267;SDS011;6702;47.068;15.458;2023-05-07T10:05:14;4.63;;;4.23;;
13267;SDS011;6702;47.068;15.458;2023-05-07T10:08:17;4.63;;;4.30;;
13267;SDS011;6702;47.068;15.458;2023-05-07T10:11:21;4.03;;;3.73;;
13267;SDS011;6702;47.068;15.458;2023-05-07T10:14:25;4.20;;;3.90;;
13267;SDS011;6702;47.068;15.458;2023-05-07T10:17:30;4.33;;;4.03;;
13267;SDS011;6702;47.068;15.458;2023-05-07T10:20:35;4.80;;;3.70;;
13267;SDS011;6702;47.068;15.458;2023-05-07T10:23:39;4.93;;;4.53;;
13267;SDS011;6702;47.068;15.458;2023-05-07T10:26:44;4.57;;;4.17;;
13267;SDS011;6702;47.068;15.458;2023-05-07T10:29:53;4.43;;;3.93;;
13267;SDS011;6702;47.068;15.458;2023-05-07T10:33:05;4.20;;;3.90;;
13267;SDS011;6702;47.068;15.458;2023-05-07T10:36:12;4.50;;;3.80;;
13267;SDS011;6702;47.068;15.458;2023-05-07T10:39:16;4.10;;;3.80;;
13267;SDS011;6702;47.068;15.458;2023-05-07T10:42:19;4.47;;;4.17;;
13267;SDS011;6702;47.068;15.458;2023-05-07T10:45:23;4.30;;;4.00;;
13267;SDS011;6702;47.068;15.458;2023-05-07T10:48:27;4.20;;;3.80;;
13267;SDS011;6702;47.068;15.458;2023-05-07T10:51:32;3.67;;;3.37;;
13267;SDS011;6702;47.068;15.458;2023-05-07T10:54:36;3.60;;;3.33;;
13267;SDS011;6702;47.068;15.458;2023-05-07T10:57:40;3.70;;;3.37;;
13267;SDS011;6702;47.068;15.458;2023-05-07T11:00:43;3.77;;;3.47;;
13267;SDS011;6702;47.068;15.458;2023-05-07T11:07:27;4.40;;;4.00;;
13267;SDS011;6702;47.068;15.458;2023-05-07T11:10:47;4.13;;;3.83;;
13267;SDS011;6702;47.068;15.458;2023-05-07T11:13:51;4.50;;;4.20;;
13267;SDS011;6702;47.068;15.458;2023-05-07T11:17:00;5.27;;;4.77;;
13267;SDS011;6702;47.068;15.458;2023-05-07T11:20:05;5.00;;;4.60;;
13267;SDS011;6702;47.068;15.458;2023-05-07T11:23:12;3.47;;;3.27;;
13267;SDS011;6702;47.068;15.458;2023-05-07T11:26:53;3.37;;;3.17;;
13267;SDS011;6702;47.068;15.458;2023-05-07T11:29:56;3.63;;;3.33;;
13267;SDS011;6702;47.068;15.458;2023-05-07T11:32:59;3.40;;;3.20;;
13267;SDS011;6702;47.068;15.458;2023-05-07T11:36:04;3.60;;;3.30;;
13267;SDS011;6702;47.068;15.458;2023-05-07T11:42:36;3.47;;;3.20;;
13267;SDS011;6702;47.068;15.458;2023-05-07T11:45:41;3.60;;;3.17;;
13267;SDS011;6702;47.068;15.458;2023-05-07T11:48:44;3.30;;;3.10;;
13267;SDS011;6702;47.068;15.458;2023-05-07T11:51:47;3.40;;;2.57;;
13267;SDS011;6702;47.068;15.458;2023-05-07T11:54:50;3.97;;;3.53;;
13267;SDS011;6702;47.068;15.458;2023-05-07T11:57:55;3.23;;;3.03;;
13267;SDS011;6702;47.068;15.458;2023-05-07T12:00:58;2.80;;;2.60;;
13267;SDS011;6702;47.068;15.458;2023-05-07T12:04:02;3.60;;;3.40;;
13267;SDS011;6702;47.068;15.458;2023-05-07T12:07:10;4.17;;;3.10;;
13267;SDS011;6702;47.068;15.458;2023-05-07T12:10:14;3.17;;;2.97;;
13267;SDS011;6702;47.068;15.458;2023-05-07T12:13:20;3.30;;;3.00;;
13267;SDS011;6702;47.068;15.458;2023-05-07T12:16:25;3.93;;;2.97;;
13267;SDS011;6702;47.068;15.458;2023-05-07T12:19:28;3.60;;;3.30;;
13267;SDS011;6702;47.068;15.458;2023-05-07T12:22:31;3.97;;;3.67;;
13267;SDS011;6702;47.068;15.458;2023-05-07T12:25:35;3.30;;;3.10;;
13267;SDS011;6702;47.068;15.458;2023-05-07T12:28:41;3.20;;;3.00;;
13267;SDS011;6702;47.068;15.458;2023-05-07T12:31:44;3.70;;;3.40;;
13267;SDS011;6702;47.068;15.458;2023-05-07T12:34:49;3.60;;;3.30;;
13267;SDS011;6702;47.068;15.458;2023-05-07T12:37:56;3.93;;;3.63;;
13267;SDS011;6702;47.068;15.458;2023-05-07T12:41:01;3.90;;;3.60;;
13267;SDS011;6702;47.068;15.458;2023-05-07T12:44:05;3.80;;;3.50;;
13267;SDS011;6702;47.068;15.458;2023-05-07T12:47:08;3.40;;;3.00;;
13267;SDS011;6702;47.068;15.458;2023-05-07T12:50:12;4.33;;;3.70;;
13267;SDS011;6702;47.068;15.458;2023-05-07T12:53:15;5.13;;;3.47;;
13267;SDS011;6702;47.068;15.458;2023-05-07T12:56:18;3.70;;;3.40;;
13267;SDS011;6702;47.068;15.458;2023-05-07T12:59:31;3.47;;;3.27;;
13267;SDS011;6702;47.068;15.458;2023-05-07T13:02:37;3.70;;;3.40;;
13267;SDS011;6702;47.068;15.458;2023-05-07T13:05:41;3.60;;;3.40;;
13267;SDS011;6702;47.068;15.458;2023-05-07T13:08:44;3.97;;;3.67;;
13267;SDS011;6702;47.068;15.458;2023-05-07T13:11:47;3.40;;;3.10;;
13267;SDS011;6702;47.068;15.458;2023-05-07T13:14:52;4.00;;;3.70;;
13267;SDS011;6702;47.068;15.458;2023-05-07T13:17:55;5.10;;;4.33;;
13267;SDS011;6702;47.068;15.458;2023-05-07T13:20:59;4.17;;;3.77;;
13267;SDS011;6702;47.068;15.458;2023-05-07T13:24:02;4.10;;;3.80;;
13267;SDS011;6702;47.068;15.458;2023-05-07T13:27:06;4.30;;;3.90;;
13267;SDS011;6702;47.068;15.458;2023-05-07T13:30:10;5.03;;;4.53;;
13267;SDS011;6702;47.068;15.458;2023-05-07T13:33:14;5.10;;;4.70;;
13267;SDS011;6702;47.068;15.458;2023-05-07T13:36:20;5.97;;;5.37;;
13267;SDS011;6702;47.068;15.458;2023-05-07T13:39:23;7.27;;;6.10;;
13267;SDS011;6702;47.068;15.458;2023-05-07T13:42:26;6.37;;;5.43;;
13267;SDS011;6702;47.068;15.458;2023-05-07T13:45:30;7.30;;;6.60;;
13267;SDS011;6702;47.068;15.458;2023-05-07T13:48:34;6.83;;;6.27;;
13267;SDS011;6702;47.068;15.458;2023-05-07T13:51:37;7.27;;;6.67;;
13267;SDS011;6702;47.068;15.458;2023-05-07T13:54:40;7.00;;;6.50;;
13267;SDS011;6702;47.068;15.458;2023-05-07T13:57:43;8.93;;;8.13;;
13267;SDS011;6702;47.068;15.458;2023-05-07T14:00:48;7.67;;;7.07;;
13267;SDS011;6702;47.068;15.458;2023-05-07T14:03:51;7.93;;;7.40;;
13267;SDS011;6702;47.068;15.458;2023-05-07T14:06:55;12.43;;;8.83;;
13267;SDS011;6702;47.068;15.458;2023-05-07T14:09:58;9.90;;;9.00;;
13267;SDS011;6702;47.068;15.458;2023-05-07T14:13:01;10.57;;;9.70;;
13267;SDS011;6702;47.068;15.458;2023-05-07T14:16:06;10.83;;;9.73;;
13267;SDS011;6702;47.068;15.458;2023-05-07T14:19:09;10.47;;;9.67;;
13267;SDS011;6702;47.068;15.458;2023-05-07T14:22:13;10.20;;;9.30;;
13267;SDS011;6702;47.068;15.458;2023-05-07T14:25:16;9.73;;;8.80;;
13267;SDS011;6702;47.068;15.458;2023-05-07T14:28:20;9.67;;;8.70;;
13267;SDS011;6702;47.068;15.458;2023-05-07T14:31:25;9.70;;;8.90;;
13267;SDS011;6702;47.068;15.458;2023-05-07T14:34:29;8.90;;;8.17;;
13267;SDS011;6702;47.068;15.458;2023-05-07T14:37:32;8.80;;;8.00;;
13267;SDS011;6702;47.068;15.458;2023-05-07T14:40:35;8.63;;;7.80;;
13267;SDS011;6702;47.068;15.458;2023-05-07T14:43:38;8.30;;;7.53;;
13267;SDS011;6702;47.068;15.458;2023-05-07T14:46:43;7.87;;;7.27;;
13267;SDS011;6702;47.068;15.458;2023-05-07T14:49:46;8.07;;;7.47;;
13267;SDS011;6702;47.068;15.458;2023-05-07T14:52:49;10.50;;;7.37;;
13267;SDS011;6702;47.068;15.458;2023-05-07T14:55:52;8.30;;;7.50;;
13267;SDS011;6702;47.068;15.458;2023-05-07T14:58:56;8.83;;;8.03;;
13267;SDS011;6702;47.068;15.458;2023-05-07T15:02:00;9.77;;;8.97;;
13267;SDS011;6702;47.068;15.458;2023-05-07T15:05:07;9.03;;;8.23;;
13267;SDS011;6702;47.068;15.458;2023-05-07T15:08:11;9.97;;;9.03;;
13267;SDS011;6702;47.068;15.458;2023-05-07T15:11:14;10.03;;;9.20;;
13267;SDS011;6702;47.068;15.458;2023-05-07T15:14:17;9.30;;;8.60;;
13267;SDS011;6702;47.068;15.458;2023-05-07T15:17:24;11.10;;;10.20;;
13267;SDS011;6702;47.068;15.458;2023-05-07T15:20:27;10.63;;;9.53;;
13267;SDS011;6702;47.068;15.458;2023-05-07T15:23:31;9.23;;;8.47;;
13267;SDS011;6702;47.068;15.458;2023-05-07T15:26:34;10.70;;;9.90;;
13267;SDS011;6702;47.068;15.458;2023-05-07T15:29:37;10.40;;;9.60;;
13267;SDS011;6702;47.068;15.458;2023-05-07T15:32:42;10.30;;;9.40;;
13267;SDS011;6702;47.068;15.458;2023-05-07T15:35:45;10.17;;;9.37;;
13267;SDS011;6702;47.068;15.458;2023-05-07T15:38:48;9.90;;;9.10;;
13267;SDS011;6702;47.068;15.458;2023-05-07T15:41:51;10.33;;;9.53;;
13267;SDS011;6702;47.068;15.458;2023-05-07T15:44:54;11.80;;;10.80;;
13267;SDS011;6702;47.068;15.458;2023-05-07T15:47:59;10.40;;;9.40;;
13267;SDS011;6702;47.068;15.458;2023-05-07T15:51:02;10.23;;;9.43;;
13267;SDS011;6702;47.068;15.458;2023-05-07T15:54:06;11.10;;;10.13;;
13267;SDS011;6702;47.068;15.458;2023-05-07T15:57:09;10.90;;;10.00;;
13267;SDS011;6702;47.068;15.458;2023-05-07T16:00:13;12.17;;;11.07;;
13267;SDS011;6702;47.068;15.458;2023-05-07T16:03:19;10.73;;;9.90;;
13267;SDS011;6702;47.068;15.458;2023-05-07T16:06:23;11.20;;;10.30;;
13267;SDS011;6702;47.068;15.458;2023-05-07T16:09:26;10.97;;;9.97;;
13267;SDS011;6702;47.068;15.458;2023-05-07T16:12:29;10.47;;;9.67;;
13267;SDS011;6702;47.068;15.458;2023-05-07T16:15:32;10.47;;;9.67;;
13267;SDS011;6702;47.068;15.458;2023-05-07T16:18:37;11.20;;;10.20;;
13267;SDS011;6702;47.068;15.458;2023-05-07T16:21:41;10.87;;;9.97;;
13267;SDS011;6702;47.068;15.458;2023-05-07T16:24:44;10.93;;;10.03;;
13267;SDS011;6702;47.068;15.458;2023-05-07T16:27:47;11.20;;;10.30;;
13267;SDS011;6702;47.068;15.458;2023-05-07T16:30:50;10.83;;;9.93;;
13267;SDS011;6702;47.068;15.458;2023-05-07T16:33:55;9.57;;;8.77;;
13267;SDS011;6702;47.068;15.458;2023-05-07T16:36:58;9.20;;;8.50;;
13267;SDS011;6702;47.068;15.458;2023-05-07T16:40:01;8.83;;;8.03;;
13267;SDS011;6702;47.068;15.458;2023-05-07T16:43:07;9.37;;;8.53;;
13267;SDS011;6702;47.068;15.458;2023-05-07T16:46:11;10.30;;;9.43;;
13267;SDS011;6702;47.068;15.458;2023-05-07T16:49:16;9.73;;;8.90;;
13267;SDS011;6702;47.068;15.458;2023-05-07T16:52:19;10.73;;;9.63;;
13267;SDS011;6702;47.068;15.458;2023-05-07T16:55:22;10.37;;;9.57;;
13267;SDS011;6702;47.068;15.458;2023-05-07T16:58:26;10.93;;;9.93;;
13267;SDS011;6702;47.068;15.458;2023-05-07T17:01:29;11.03;;;10.07;;
13267;SDS011;6702;47.068;15.458;2023-05-07T17:04:34;11.30;;;10.30;;
13267;SDS011;6702;47.068;15.458;2023-05-07T17:07:37;10.87;;;9.87;;
13267;SDS011;6702;47.068;15.458;2023-05-07T17:10:40;11.07;;;10.07;;
13267;SDS011;6702;47.068;15.458;2023-05-07T17:13:43;10.67;;;9.87;;
13267;SDS011;6702;47.068;15.458;2023-05-07T17:16:47;10.13;;;9.33;;
13267;SDS011;6702;47.068;15.458;2023-05-07T17:19:51;8.73;;;8.03;;
13267;SDS011;6702;47.068;15.458;2023-05-07T17:22:54;12.93;;;11.30;;
13267;SDS011;6702;47.068;15.458;2023-05-07T17:25:57;12.03;;;10.83;;
13267;SDS011;6702;47.068;15.458;2023-05-07T17:29:01;12.10;;;11.20;;
13267;SDS011;6702;47.068;15.458;2023-05-07T17:32:04;13.00;;;11.77;;
13267;SDS011;6702;47.068;15.458;2023-05-07T17:35:10;14.20;;;12.90;;
13267;SDS011;6702;47.068;15.458;2023-05-07T17:38:13;13.70;;;12.50;;
13267;SDS011;6702;47.068;15.458;2023-05-07T17:41:17;15.83;;;14.57;;
13267;SDS011;6702;47.068;15.458;2023-05-07T17:44:21;16.37;;;14.90;;
13267;SDS011;6702;47.068;15.458;2023-05-07T17:47:24;18.63;;;15.90;;
13267;SDS011;6702;47.068;15.458;2023-05-07T17:50:29;19.53;;;17.63;;
13267;SDS011;6702;47.068;15.458;2023-05-07T17:53:32;19.00;;;17.30;;
13267;SDS011;6702;47.068;15.458;2023-05-07T17:56:36;18.07;;;16.37;;
13267;SDS011;6702;47.068;15.458;2023-05-07T17:59:39;17.60;;;16.10;;
13267;SDS011;6702;47.068;15.458;2023-05-07T18:02:42;21.13;;;19.23;;
13267;SDS011;6702;47.068;15.458;2023-05-07T18:05:47;18.67;;;16.97;;
13267;SDS011;6702;47.068;15.458;2023-05-07T18:08:50;18.47;;;16.80;;
13267;SDS011;6702;47.068;15.458;2023-05-07T18:11:54;16.93;;;15.47;;
13267;SDS011;6702;47.068;15.458;2023-05-07T18:14:57;16.80;;;15.40;;
13267;SDS011;6702;47.068;15.458;2023-05-07T18:18:01;18.57;;;16.83;;
13267;SDS011;6702;47.068;15.458;2023-05-07T18:21:05;24.97;;;22.37;;
13267;SDS011;6702;47.068;15.458;2023-05-07T18:24:10;21.37;;;19.17;;
13267;SDS011;6702;47.068;15.458;2023-05-07T18:27:13;19.73;;;17.93;;
13267;SDS011;6702;47.068;15.458;2023-05-07T18:30:16;18.80;;;17.10;;